createdAt,value
2018-10-17T00:04:25.225Z,27.93
2018-10-17T00:09:29.792Z,27.75
2018-10-17T00:14:34.671Z,28.00
2018-10-17T00:19:39.236Z,28.02
2018-10-17T00:24:43.668Z,27.02
2018-10-17T00:29:48.406Z,27.35
2018-10-17T00:34:53.092Z,26.93
2018-10-17T00:39:57.758Z,26.77
2018-10-17T00:45:02.684Z,26.62
2018-10-17T00:50:07.341Z,25.40
2018-10-17T00:55:12.510Z,25.32
2018-10-17T01:00:16.845Z,26.33
2018-10-17T01:05:21.205Z,26.93
2018-10-17T01:10:25.512Z,25.53
2018-10-17T01:15:30.256Z,25.97
2018-10-17T01:20:34.951Z,27.82
2018-10-17T01:25:39.383Z,27.20
2018-10-17T01:30:43.799Z,28.42
2018-10-17T01:35:48.133Z,28.20
2018-10-17T01:40:52.564Z,28.15
2018-10-17T01:45:57.517Z,26.80
2018-10-17T01:51:02.013Z,24.53
2018-10-17T01:56:07.065Z,24.23
2018-10-17T02:06:16.622Z,23.70
2018-10-17T02:11:21.032Z,24.37
2018-10-17T02:16:25.807Z,24.20
2018-10-17T02:21:30.709Z,23.73
2018-10-17T02:26:36.352Z,24.83
2018-10-17T02:31:41.008Z,24.03
2018-10-17T02:36:45.646Z,24.17
2018-10-17T02:41:55.482Z,24.20
2018-10-17T02:47:00.102Z,23.07
2018-10-17T02:52:04.725Z,24.07
2018-10-17T02:57:09.972Z,22.90
2018-10-17T03:02:14.657Z,24.77
2018-10-17T03:07:19.506Z,24.23
2018-10-17T03:12:24.376Z,23.20
2018-10-17T03:17:28.941Z,23.67
2018-10-17T03:22:33.891Z,23.50
2018-10-17T03:27:38.233Z,23.67
2018-10-17T03:32:42.613Z,23.47
2018-10-17T03:37:47.900Z,28.97
2018-10-17T03:42:52.976Z,28.20
2018-10-17T03:47:57.729Z,29.57
2018-10-17T03:53:15.652Z,27.82
2018-10-17T03:58:20.015Z,27.47
2018-10-17T04:03:24.513Z,28.23
2018-10-17T04:08:29.528Z,28.07
2018-10-17T04:13:34.694Z,26.87
2018-10-17T04:18:39.266Z,27.37
2018-10-17T04:23:43.669Z,27.30
2018-10-17T04:28:48.440Z,28.10
2018-10-17T04:33:52.695Z,28.40
2018-10-17T04:38:57.844Z,28.57
2018-10-17T04:44:02.159Z,27.98
2018-10-17T04:49:08.213Z,28.38
2018-10-17T04:54:13.980Z,28.92
2018-10-17T04:59:18.548Z,28.60
2018-10-17T05:04:23.377Z,28.80
2018-10-17T05:09:27.642Z,29.10
2018-10-17T05:14:32.191Z,29.50
2018-10-17T05:19:36.569Z,28.43
2018-10-17T05:24:41.142Z,28.40
2018-10-17T05:29:46.083Z,28.10
2018-10-17T05:34:50.965Z,29.00
2018-10-17T05:39:55.476Z,29.23
2018-10-17T05:44:59.874Z,27.33
2018-10-17T05:50:04.634Z,28.60
2018-10-17T05:55:09.395Z,29.37
2018-10-17T06:00:14.598Z,29.13
2018-10-17T06:05:19.119Z,29.37
2018-10-17T06:10:24.000Z,29.52
2018-10-17T06:15:28.003Z,29.00
2018-10-17T06:20:32.862Z,29.40
2018-10-17T06:25:37.697Z,28.40
2018-10-17T06:30:42.018Z,28.97
2018-10-17T06:35:46.702Z,28.60
2018-10-17T06:40:50.984Z,29.52
2018-10-17T06:45:55.695Z,29.23
2018-10-17T06:51:00.394Z,29.40
2018-10-17T06:56:05.804Z,28.90
2018-10-17T07:01:10.291Z,30.10
2018-10-17T07:06:14.570Z,30.43
2018-10-17T07:11:19.830Z,30.67
2018-10-17T07:16:26.889Z,30.02
2018-10-17T07:21:31.391Z,29.60
2018-10-17T07:26:35.771Z,29.85
2018-10-17T07:31:40.703Z,28.40
2018-10-17T07:36:45.189Z,28.93
2018-10-17T07:41:49.876Z,29.75
2018-10-17T07:46:54.175Z,30.48
2018-10-17T07:51:59.449Z,29.45
2018-10-17T07:57:03.809Z,29.75
2018-10-17T08:02:08.319Z,29.55
2018-10-17T08:07:12.745Z,29.00
2018-10-17T08:12:17.933Z,28.90
2018-10-17T08:17:22.365Z,30.43
2018-10-17T08:22:26.949Z,31.13
2018-10-17T08:27:31.596Z,30.92
2018-10-17T08:32:36.051Z,32.78
2018-10-17T08:37:41.302Z,33.33
2018-10-17T08:42:45.183Z,33.88
2018-10-17T08:47:49.555Z,34.65
2018-10-17T08:52:54.106Z,34.85
2018-10-17T08:57:58.921Z,35.35
2018-10-17T09:03:03.805Z,34.37
2018-10-17T09:08:08.261Z,34.03
2018-10-17T09:13:13.237Z,35.25
2018-10-17T09:18:19.071Z,34.47
2018-10-17T09:23:27.648Z,37.10
2018-10-17T09:28:32.186Z,36.98
2018-10-17T09:33:44.309Z,36.03
2018-10-17T09:38:49.093Z,33.98
2018-10-17T09:43:53.670Z,34.17
2018-10-17T09:48:58.311Z,34.13
2018-10-17T09:54:02.979Z,34.60
2018-10-17T09:59:07.813Z,36.07
2018-10-17T10:04:12.329Z,36.83
2018-10-17T10:14:31.560Z,36.10
2018-10-17T10:19:36.103Z,38.45
2018-10-17T10:24:41.146Z,38.95
2018-10-17T10:29:46.394Z,42.95
2018-10-17T10:34:50.802Z,38.63
2018-10-17T10:39:55.394Z,39.27
2018-10-17T10:44:59.552Z,40.58
2018-10-17T10:50:09.592Z,39.03
2018-10-17T10:55:13.788Z,41.23
2018-10-17T11:00:21.106Z,41.25
2018-10-17T11:05:26.353Z,41.77
2018-10-17T11:10:35.418Z,40.40
2018-10-17T11:15:40.582Z,38.17
2018-10-17T11:20:45.288Z,40.30
2018-10-17T11:25:49.654Z,39.27
2018-10-17T11:30:54.168Z,40.90
2018-10-17T11:35:58.660Z,39.05
2018-10-17T11:41:05.571Z,38.47
2018-10-17T11:46:14.269Z,38.13
2018-10-17T11:56:33.728Z,39.45
2018-10-17T12:01:45.118Z,36.00
2018-10-17T12:06:49.780Z,35.23
2018-10-17T12:11:54.744Z,34.50
2018-10-17T12:16:59.640Z,33.83
2018-10-17T12:22:04.425Z,34.73
2018-10-17T12:27:09.792Z,32.97
2018-10-17T12:32:14.509Z,33.10
2018-10-17T12:37:20.294Z,32.13
2018-10-17T12:42:26.094Z,30.47
2018-10-17T12:47:30.825Z,30.97
2018-10-17T12:52:35.317Z,28.27
2018-10-17T12:57:39.850Z,29.15
2018-10-17T13:02:49.589Z,29.67
2018-10-17T13:07:55.814Z,28.25
2018-10-17T13:13:00.790Z,28.40
2018-10-17T13:18:06.490Z,26.50
2018-10-17T13:23:11.627Z,29.50
2018-10-17T13:28:16.680Z,26.97
2018-10-17T13:33:23.029Z,26.20
2018-10-17T13:38:28.571Z,25.23
2018-10-17T13:43:36.647Z,25.02
2018-10-17T13:48:41.507Z,26.50
2018-10-17T13:53:46.905Z,24.77
2018-10-17T13:58:51.970Z,25.93
2018-10-17T14:03:57.608Z,24.67
2018-10-17T14:09:03.586Z,23.95
2018-10-17T14:14:08.802Z,23.05
2018-10-17T14:19:13.272Z,24.53
2018-10-17T14:24:18.685Z,25.30
2018-10-17T14:29:23.595Z,24.95
2018-10-17T14:34:28.380Z,24.83
2018-10-17T14:39:33.876Z,24.77
2018-10-17T14:44:38.666Z,21.40
2018-10-17T14:49:43.612Z,23.03
2018-10-17T14:54:47.947Z,23.57
2018-10-17T14:59:52.701Z,22.98
2018-10-17T15:04:57.497Z,22.05
2018-10-17T15:10:01.876Z,20.70
2018-10-17T15:15:06.886Z,21.15
2018-10-17T15:20:11.311Z,22.33
2018-10-17T15:25:16.024Z,20.40
2018-10-17T15:30:20.801Z,19.20
2018-10-17T15:35:25.302Z,20.47
2018-10-17T15:40:29.784Z,20.77
2018-10-17T15:45:34.110Z,19.73
2018-10-17T15:50:43.306Z,20.67
2018-10-17T15:55:48.009Z,20.90
2018-10-17T16:00:52.191Z,21.50
2018-10-17T16:05:56.601Z,21.97
2018-10-17T16:11:01.061Z,22.42
2018-10-17T16:16:05.907Z,22.58
2018-10-17T16:21:10.536Z,22.00
2018-10-17T16:26:15.412Z,22.27
2018-10-17T16:31:19.634Z,27.70
2018-10-17T16:36:25.184Z,22.75
2018-10-17T16:41:29.935Z,22.20
2018-10-17T16:46:34.446Z,22.77
2018-10-17T16:51:39.537Z,22.03
2018-10-17T16:56:43.963Z,23.40
2018-10-17T17:01:48.344Z,23.67
2018-10-17T17:06:52.769Z,24.02
2018-10-17T17:12:10.733Z,22.03
